Time;durP1;ratioP1;P1;durP2;ratioP2;P2;SDS_P1;SDS_P2;PMS_P1;PMS_P2;Temp;Humidity;BMP_temperature;BMP_pressure;BME280_temperature;BME280_humidity;BME280_pressure;Samples;Min_cycle;Max_cycle;Signal;HPM_P1;HPM_P2
2022/02/11 00:12:42;;;;;;;;;12.50;10.50;;;;;;;;2;261077854;261077854;-83
2022/02/11 00:21:43;;;;;;;;;12.00;3.50;;;;;;;;2;261076283;261076283;-83
2022/02/11 00:40:04;;;;;;;;;7.50;7.50;;;;;;;;2;261078404;261078404;-83
2022/02/11 01:06:07;;;;;;;;;9.50;8.00;;;;;;;;2;261079595;261079595;-84
2022/02/11 01:15:08;;;;;;;;;6.00;6.00;;;;;;;;2;261078669;261078669;-84
2022/02/11 01:59:28;;;;;;;;;7.00;7.00;;;;;;;;2;261074995;261074995;-84
2022/02/11 02:35:00;;;;;;;;;4.00;4.00;;;;;;;;2;261073869;261073869;-84
2022/02/11 03:01:59;;;;;;;;;4.00;4.00;;;;;;;;2;261076308;261076308;-84
2022/02/11 05:06:37;;;;;;;;;9.00;4.00;;;;;;;;2;261064288;261064288;-84
2022/02/11 05:14:52;;;;;;;;;7.00;7.00;;;;;;;;2;261065487;261065487;-83
2022/02/11 05:23:53;;;;;;;;;6.00;6.00;;;;;;;;2;261077888;261077888;-84
2022/02/11 05:32:08;;;;;;;;;6.50;6.50;;;;;;;;2;261076562;261076562;-84
2022/02/11 05:41:10;;;;;;;;;12.50;9.50;;;;;;;;2;261075352;261075352;-83
2022/02/11 05:49:25;;;;;;;;;5.50;5.50;;;;;;;;2;261077971;261077971;-84
2022/02/11 05:58:26;;;;;;;;;4.00;4.00;;;;;;;;2;261075680;261075680;-85
2022/02/11 06:10:00;;;;;;;;;7.00;7.00;;;;;;;;2;261076205;261076205;-86
2022/02/11 06:19:01;;;;;;;;;4.50;4.50;;;;;;;;2;261082370;261082370;-85
2022/02/11 06:27:16;;;;;;;;;5.00;5.00;;;;;;;;2;261077545;261077545;-84
2022/02/11 06:36:17;;;;;;;;;2.50;2.50;;;;;;;;2;261077714;261077714;-81
2022/02/11 06:44:32;;;;;;;;;10.00;10.00;;;;;;;;2;261079441;261079441;-84
2022/02/11 06:53:33;;;;;;;;;16.00;8.00;;;;;;;;2;261077441;261077441;-87
2022/02/11 07:01:48;;;;;;;;;18.00;7.00;;;;;;;;2;261075824;261075824;-86
2022/02/11 07:10:49;;;;;;;;;3.50;3.50;;;;;;;;2;261080075;261080075;-86
2022/02/11 07:19:04;;;;;;;;;4.00;4.00;;;;;;;;2;261080845;261080845;-86
2022/02/11 07:28:05;;;;;;;;;7.50;7.50;;;;;;;;2;261077530;261077530;-86
2022/02/11 07:36:22;;;;;;;;;7.00;7.00;;;;;;;;2;261080367;261080367;-85
2022/02/11 07:45:24;;;;;;;;;6.00;6.00;;;;;;;;2;261077150;261077150;-86
2022/02/11 07:53:39;;;;;;;;;17.00;5.00;;;;;;;;2;261075388;261075388;-86
2022/02/11 08:02:40;;;;;;;;;6.50;6.50;;;;;;;;2;261080905;261080905;-86
2022/02/11 08:10:56;;;;;;;;;4.50;4.50;;;;;;;;2;260949498;260949498;-86
2022/02/11 08:19:56;;;;;;;;;17.00;8.00;;;;;;;;2;261075794;261075794;-87
2022/02/11 08:28:11;;;;;;;;;7.50;7.50;;;;;;;;2;261078173;261078173;-86
2022/02/11 08:37:12;;;;;;;;;11.50;6.50;;;;;;;;2;261077017;261077017;-85
2022/02/11 08:45:27;;;;;;;;;8.00;8.00;;;;;;;;2;261074860;261074860;-84
2022/02/11 08:54:28;;;;;;;;;8.50;8.50;;;;;;;;2;261077715;261077715;-84
2022/02/11 09:02:43;;;;;;;;;7.50;3.50;;;;;;;;2;261076204;261076204;-84
2022/02/11 09:11:44;;;;;;;;;9.00;5.00;;;;;;;;2;261078014;261078014;-84
2022/02/11 09:19:59;;;;;;;;;18.00;9.00;;;;;;;;2;261078754;261078754;-85
2022/02/11 09:29:00;;;;;;;;;11.50;8.50;;;;;;;;2;261077924;261077924;-85
2022/02/11 09:37:16;;;;;;;;;24.00;12.00;;;;;;;;2;261079093;261079093;-85
2022/02/11 09:46:17;;;;;;;;;3.00;3.00;;;;;;;;2;261074703;261074703;-83
2022/02/11 09:54:33;;;;;;;;;7.50;6.00;;;;;;;;2;261080997;261080997;-85
2022/02/11 10:03:35;;;;;;;;;8.50;8.50;;;;;;;;2;261079540;261079540;-85
2022/02/11 10:11:52;;;;;;;;;8.50;8.50;;;;;;;;2;261078521;261078521;-83
2022/02/11 10:20:56;;;;;;;;;5.50;5.50;;;;;;;;2;261079535;261079535;-83
2022/02/11 10:29:14;;;;;;;;;22.00;14.00;;;;;;;;2;261077097;261077097;-84
2022/02/11 10:38:15;;;;;;;;;12.00;12.00;;;;;;;;2;261079495;261079495;-84
2022/02/11 10:46:38;;;;;;;;;35.50;9.50;;;;;;;;2;261079502;261079502;-84
2022/02/11 10:55:48;;;;;;;;;23.00;10.50;;;;;;;;2;261077393;261077393;-84
2022/02/11 11:04:03;;;;;;;;;10.00;10.00;;;;;;;;2;261077427;261077427;-84
2022/02/11 11:13:04;;;;;;;;;10.50;10.50;;;;;;;;2;261075091;261075091;-84
2022/02/11 11:21:20;;;;;;;;;18.50;6.50;;;;;;;;2;261077884;261077884;-84
2022/02/11 11:30:21;;;;;;;;;10.00;10.00;;;;;;;;2;261075329;261075329;-84
2022/02/11 11:38:39;;;;;;;;;10.00;10.00;;;;;;;;2;261078668;261078668;-84
2022/02/11 11:47:43;;;;;;;;;7.50;5.50;;;;;;;;2;261077750;261077750;-83
2022/02/11 11:55:59;;;;;;;;;6.00;6.00;;;;;;;;2;261076297;261076297;-84
2022/02/11 12:05:00;;;;;;;;;16.00;7.00;;;;;;;;2;261073237;261073237;-82
2022/02/11 12:13:22;;;;;;;;;8.00;8.00;;;;;;;;2;261077470;261077470;-82
2022/02/11 12:22:24;;;;;;;;;8.50;8.50;;;;;;;;2;261076802;261076802;-83
2022/02/11 12:30:42;;;;;;;;;5.50;5.50;;;;;;;;2;261075461;261075461;-83
2022/02/11 12:39:43;;;;;;;;;33.00;11.50;;;;;;;;2;261078393;261078393;-83
2022/02/11 12:47:59;;;;;;;;;5.00;5.00;;;;;;;;2;261076793;261076793;-83
2022/02/11 12:57:04;;;;;;;;;13.00;4.00;;;;;;;;2;261075550;261075550;-83
2022/02/11 13:05:26;;;;;;;;;6.00;6.00;;;;;;;;2;261079113;261079113;-83
2022/02/11 13:14:27;;;;;;;;;8.50;6.50;;;;;;;;2;261076598;261076598;-86
2022/02/11 13:22:43;;;;;;;;;3.00;3.00;;;;;;;;2;261073843;261073843;-85
2022/02/11 13:31:45;;;;;;;;;16.50;7.50;;;;;;;;2;261065515;261065515;-84
2022/02/11 13:40:08;;;;;;;;;5.00;5.00;;;;;;;;2;261075068;261075068;-85
2022/02/11 13:49:10;;;;;;;;;4.50;4.50;;;;;;;;2;261076362;261076362;-85
2022/02/11 13:57:26;;;;;;;;;5.50;5.50;;;;;;;;2;261077213;261077213;-84
2022/02/11 14:06:28;;;;;;;;;7.50;7.50;;;;;;;;2;261074947;261074947;-84
2022/02/11 14:14:50;;;;;;;;;8.00;6.50;;;;;;;;2;261078286;261078286;-84
2022/02/11 14:23:51;;;;;;;;;7.00;7.00;;;;;;;;2;261073795;261073795;-84
2022/02/11 14:32:07;;;;;;;;;2.50;2.50;;;;;;;;2;261073083;261073083;-84
2022/02/11 14:49:42;;;;;;;;;1.00;1.00;;;;;;;;2;261076142;261076142;-85
2022/02/11 14:58:43;;;;;;;;;12.50;4.00;;;;;;;;2;261076087;261076087;-85
2022/02/11 15:07:09;;;;;;;;;4.50;4.50;;;;;;;;2;261076162;261076162;-87
2022/02/11 15:16:09;;;;;;;;;2.00;2.00;;;;;;;;2;261077208;261077208;-85
2022/02/11 15:24:26;;;;;;;;;3.50;3.50;;;;;;;;2;261080464;261080464;-85
2022/02/11 15:33:26;;;;;;;;;14.00;2.00;;;;;;;;2;261076515;261076515;-86
2022/02/11 15:41:42;;;;;;;;;2.50;2.50;;;;;;;;2;261077238;261077238;-85
2022/02/11 15:50:42;;;;;;;;;4.50;1.50;;;;;;;;2;261075988;261075988;-85
2022/02/11 15:58:58;;;;;;;;;4.50;4.50;;;;;;;;2;261076123;261076123;-85
2022/02/11 16:07:58;;;;;;;;;2.00;2.00;;;;;;;;2;261078284;261078284;-81
2022/02/11 16:16:17;;;;;;;;;1.50;1.50;;;;;;;;2;261082874;261082874;-80
2022/02/11 16:25:17;;;;;;;;;2.50;2.50;;;;;;;;2;261078849;261078849;-83
2022/02/11 16:33:32;;;;;;;;;4.50;4.50;;;;;;;;2;261075435;261075435;-83
2022/02/11 16:42:33;;;;;;;;;3.50;3.50;;;;;;;;2;261078830;261078830;-83
2022/02/11 16:50:49;;;;;;;;;2.00;2.00;;;;;;;;2;261080545;261080545;-84
2022/02/11 16:59:52;;;;;;;;;4.50;4.50;;;;;;;;2;261077553;261077553;-83
2022/02/11 17:08:07;;;;;;;;;5.50;5.50;;;;;;;;2;261086174;261086174;-84
2022/02/11 17:17:08;;;;;;;;;82.00;66.00;;;;;;;;2;261075953;261075953;-85
2022/02/11 17:25:23;;;;;;;;;14.50;14.50;;;;;;;;2;261079056;261079056;-84
2022/02/11 17:34:24;;;;;;;;;12.50;12.50;;;;;;;;2;261076750;261076750;-91
2022/02/11 17:42:39;;;;;;;;;14.00;14.00;;;;;;;;2;261075692;261075692;-87
2022/02/11 17:51:40;;;;;;;;;36.00;31.00;;;;;;;;2;261081646;261081646;-92
2022/02/11 17:59:55;;;;;;;;;64.50;44.00;;;;;;;;2;261078619;261078619;-90
2022/02/11 18:08:56;;;;;;;;;46.50;40.00;;;;;;;;2;261075747;261075747;-93
2022/02/11 18:17:11;;;;;;;;;25.00;21.50;;;;;;;;2;261075579;261075579;-90
2022/02/11 18:26:13;;;;;;;;;41.00;29.50;;;;;;;;2;261079893;261079893;-90
2022/02/11 18:34:28;;;;;;;;;27.00;24.00;;;;;;;;2;261078934;261078934;-89
2022/02/11 18:43:29;;;;;;;;;20.50;20.50;;;;;;;;2;261080721;261080721;-90
2022/02/11 18:51:45;;;;;;;;;5.50;5.50;;;;;;;;2;261074629;261074629;-90
2022/02/11 19:00:45;;;;;;;;;22.00;18.00;;;;;;;;2;261075680;261075680;-89
2022/02/11 19:09:00;;;;;;;;;31.50;19.50;;;;;;;;2;261079699;261079699;-85
2022/02/11 19:18:02;;;;;;;;;28.00;23.50;;;;;;;;2;261083259;261083259;-85
2022/02/11 19:26:17;;;;;;;;;31.00;19.00;;;;;;;;2;261076439;261076439;-84
2022/02/11 19:35:18;;;;;;;;;26.00;18.50;;;;;;;;2;261076319;261076319;-89
2022/02/11 19:43:33;;;;;;;;;40.50;34.00;;;;;;;;2;261083046;261083046;-87
2022/02/11 19:52:34;;;;;;;;;28.50;25.50;;;;;;;;2;261080823;261080823;-87
2022/02/11 20:00:49;;;;;;;;;16.50;16.50;;;;;;;;2;261080356;261080356;-87
2022/02/11 20:09:49;;;;;;;;;31.50;17.50;;;;;;;;2;261075520;261075520;-86
2022/02/11 20:18:05;;;;;;;;;35.50;23.00;;;;;;;;2;261072747;261072747;-86
2022/02/11 20:27:06;;;;;;;;;48.00;37.00;;;;;;;;2;261078890;261078890;-86
2022/02/11 20:35:28;;;;;;;;;42.00;26.00;;;;;;;;2;261073318;261073318;-87
2022/02/11 20:44:29;;;;;;;;;23.50;16.50;;;;;;;;2;261080541;261080541;-87
2022/02/11 20:52:45;;;;;;;;;15.50;15.50;;;;;;;;2;261085535;261085535;-87
2022/02/11 21:01:45;;;;;;;;;27.00;18.00;;;;;;;;2;261077541;261077541;-88
2022/02/11 21:10:00;;;;;;;;;20.50;20.50;;;;;;;;2;261078794;261078794;-89
2022/02/11 21:19:01;;;;;;;;;20.00;16.50;;;;;;;;2;261080646;261080646;-90
2022/02/11 21:27:16;;;;;;;;;23.00;23.00;;;;;;;;2;261079925;261079925;-90
2022/02/11 21:36:17;;;;;;;;;19.50;19.50;;;;;;;;2;261077581;261077581;-89
2022/02/11 21:44:32;;;;;;;;;36.00;33.00;;;;;;;;2;261075732;261075732;-91
2022/02/11 21:53:33;;;;;;;;;46.50;24.00;;;;;;;;2;261079403;261079403;-89
2022/02/11 22:01:50;;;;;;;;;14.50;14.50;;;;;;;;2;261078826;261078826;-91
2022/02/11 22:10:51;;;;;;;;;25.50;22.00;;;;;;;;2;261075119;261075119;-92
2022/02/11 22:19:07;;;;;;;;;31.00;19.00;;;;;;;;2;261078872;261078872;-91
2022/02/11 22:28:07;;;;;;;;;32.00;31.00;;;;;;;;2;261079137;261079137;-90
2022/02/11 22:36:23;;;;;;;;;19.00;19.00;;;;;;;;2;261075253;261075253;-92
2022/02/11 22:45:23;;;;;;;;;17.50;17.50;;;;;;;;2;261072031;261072031;-90
2022/02/11 22:53:38;;;;;;;;;15.50;15.50;;;;;;;;2;261080964;261080964;-90
2022/02/11 23:02:39;;;;;;;;;28.00;28.00;;;;;;;;2;261076254;261076254;-90
2022/02/11 23:10:54;;;;;;;;;16.50;16.50;;;;;;;;2;261074936;261074936;-89
2022/02/11 23:19:54;;;;;;;;;25.50;22.50;;;;;;;;2;261075223;261075223;-90
2022/02/11 23:28:10;;;;;;;;;22.00;22.00;;;;;;;;2;261079012;261079012;-89
2022/02/11 23:37:11;;;;;;;;;17.50;17.50;;;;;;;;2;261077391;261077391;-89
2022/02/11 23:45:27;;;;;;;;;21.00;21.00;;;;;;;;2;261075836;261075836;-85
2022/02/11 23:54:30;;;;;;;;;26.50;26.50;;;;;;;;2;261079694;261079694;-85
